createdAt,value
2023-01-04T00:02:47.856Z,75.25
2023-01-04T00:11:02.001Z,75.30
2023-01-04T00:15:07.886Z,75.15
2023-01-04T00:19:13.531Z,75.25
2023-01-04T00:23:16.480Z,75.15
2023-01-04T00:27:19.606Z,74.92
2023-01-04T00:31:25.238Z,75.02
2023-01-04T00:35:45.426Z,75.25
2023-01-04T00:39:49.384Z,75.46
2023-01-04T00:43:52.458Z,75.71
2023-01-04T00:47:57.839Z,75.90
2023-01-04T00:52:01.861Z,75.52
2023-01-04T00:56:05.400Z,75.61
2023-01-04T01:00:09.961Z,75.12
2023-01-04T01:04:17.537Z,74.76
2023-01-04T01:08:26.343Z,74.62
2023-01-04T01:12:29.690Z,74.96
2023-01-04T01:16:53.900Z,75.46
2023-01-04T01:20:57.229Z,75.73
2023-01-04T01:25:00.337Z,75.33
2023-01-04T01:29:03.659Z,75.23
2023-01-04T01:33:06.783Z,75.03
2023-01-04T01:37:11.269Z,75.37
2023-01-04T01:41:20.073Z,75.10
2023-01-04T01:45:32.879Z,75.33
2023-01-04T01:49:38.558Z,76.01
2023-01-04T01:53:48.191Z,75.96
2023-01-04T01:57:52.624Z,75.83
2023-01-04T02:01:56.261Z,75.77
2023-01-04T02:06:02.880Z,75.72
2023-01-04T02:10:08.713Z,75.46
2023-01-04T02:14:30.718Z,75.51
2023-01-04T02:18:44.376Z,75.20
2023-01-04T02:23:20.335Z,75.67
2023-01-04T02:27:47.699Z,75.61
2023-01-04T02:31:55.631Z,74.88
2023-01-04T02:36:03.831Z,75.18
2023-01-04T02:40:18.246Z,74.92
2023-01-04T02:44:44.133Z,74.61
2023-01-04T02:49:06.137Z,73.98
2023-01-04T02:53:13.366Z,74.24
2023-01-04T02:57:38.789Z,74.63
2023-01-04T03:02:16.685Z,74.29
2023-01-04T03:06:27.540Z,74.17
2023-01-04T03:10:40.971Z,74.46
2023-01-04T03:14:50.274Z,74.20
2023-01-04T03:18:57.974Z,74.32
2023-01-04T03:23:32.992Z,74.25
2023-01-04T03:27:53.419Z,74.38
2023-01-04T03:32:18.032Z,74.38
2023-01-04T03:36:30.569Z,74.46
2023-01-04T03:40:54.539Z,74.37
2023-01-04T03:45:26.013Z,74.32
2023-01-04T03:49:35.201Z,74.18
2023-01-04T03:53:45.648Z,74.34
2023-01-04T03:57:50.880Z,74.49
2023-01-04T04:01:54.539Z,74.84
2023-01-04T04:06:14.981Z,74.66
2023-01-04T04:10:18.447Z,74.57
2023-01-04T04:14:23.300Z,74.57
2023-01-04T04:18:26.230Z,74.31
2023-01-04T04:22:29.406Z,74.39
2023-01-04T04:26:32.908Z,74.20
2023-01-04T04:30:37.532Z,74.25
2023-01-04T04:34:40.989Z,73.65
2023-01-04T04:38:44.164Z,73.38
2023-01-04T04:42:47.594Z,74.03
2023-01-04T04:46:52.414Z,74.17
2023-01-04T04:50:55.378Z,74.40
2023-01-04T04:54:58.425Z,74.81
2023-01-04T04:59:01.599Z,74.37
2023-01-04T05:03:06.173Z,74.74
2023-01-04T05:07:12.591Z,74.45
2023-01-04T05:11:16.535Z,74.54
2023-01-04T05:15:19.666Z,74.51
2023-01-04T05:19:24.245Z,74.82
2023-01-04T05:23:27.432Z,74.74
2023-01-04T05:27:30.518Z,74.74
2023-01-04T05:31:34.002Z,74.79
2023-01-04T05:35:39.147Z,74.58
2023-01-04T05:39:42.076Z,75.08
2023-01-04T05:43:45.240Z,74.88
2023-01-04T05:47:51.374Z,75.00
2023-01-04T05:51:55.855Z,74.57
2023-01-04T05:55:58.793Z,74.45
2023-01-04T06:00:01.893Z,74.38
2023-01-04T06:04:05.130Z,74.27
2023-01-04T06:08:09.672Z,74.39
2023-01-04T06:12:14.756Z,74.17
2023-01-04T06:16:17.944Z,74.51
2023-01-04T06:20:21.436Z,74.31
2023-01-04T06:24:26.271Z,74.50
2023-01-04T06:28:34.210Z,73.84
2023-01-04T06:32:40.238Z,73.61
2023-01-04T06:36:43.556Z,73.97
2023-01-04T06:40:48.111Z,73.90
2023-01-04T06:44:51.210Z,73.71
2023-01-04T06:48:54.925Z,73.69
2023-01-04T06:52:58.142Z,74.02
2023-01-04T06:57:02.792Z,74.13
2023-01-04T07:01:06.633Z,73.85
2023-01-04T07:05:10.542Z,74.27
2023-01-04T07:09:13.669Z,74.58
2023-01-04T07:13:18.232Z,74.45
2023-01-04T07:17:26.438Z,74.52
2023-01-04T07:21:33.102Z,74.30
2023-01-04T07:25:36.684Z,74.32
2023-01-04T07:29:44.160Z,74.51
2023-01-04T07:33:50.909Z,74.25
2023-01-04T07:43:16.141Z,74.40
2023-01-04T07:47:21.061Z,74.44
2023-01-04T07:51:24.325Z,73.79
2023-01-04T07:55:27.826Z,73.73
2023-01-04T07:59:31.111Z,73.96
2023-01-04T08:03:35.604Z,73.95
2023-01-04T08:07:38.524Z,74.27
2023-01-04T08:11:42.673Z,74.52
2023-01-04T08:15:46.156Z,74.16
2023-01-04T08:19:50.533Z,73.60
2023-01-04T08:23:54.728Z,73.99
2023-01-04T08:27:58.002Z,74.35
2023-01-04T08:32:01.189Z,74.14
2023-01-04T08:36:14.604Z,74.10
2023-01-04T08:40:17.856Z,74.25
2023-01-04T08:44:22.311Z,74.37
2023-01-04T08:48:25.753Z,73.96
2023-01-04T08:52:30.399Z,73.87
2023-01-04T08:56:36.229Z,73.49
2023-01-04T09:00:39.539Z,73.21
2023-01-04T09:04:42.870Z,71.98
2023-01-04T09:08:50.014Z,72.10
2023-01-04T09:12:53.169Z,72.72
2023-01-04T09:16:56.491Z,73.04
2023-01-04T09:21:01.648Z,73.09
2023-01-04T09:25:07.442Z,72.68
2023-01-04T09:29:12.657Z,72.40
2023-01-04T09:33:15.925Z,72.17
2023-01-04T09:37:19.296Z,72.35
2023-01-04T09:41:27.568Z,72.75
2023-01-04T09:45:30.931Z,72.35
2023-01-04T09:49:38.526Z,72.51
2023-01-04T09:53:47.000Z,72.29
2023-01-04T09:57:57.712Z,72.31
2023-01-04T10:02:05.903Z,71.92
2023-01-04T10:06:15.973Z,72.00
2023-01-04T10:10:31.897Z,71.22
2023-01-04T10:14:51.414Z,71.23
2023-01-04T10:19:28.687Z,70.99
2023-01-04T10:23:39.448Z,71.42
2023-01-04T10:27:54.237Z,70.94
2023-01-04T10:32:05.994Z,70.37
2023-01-04T10:36:19.523Z,71.04
2023-01-04T10:40:22.983Z,70.85
2023-01-04T10:44:35.665Z,70.29
2023-01-04T10:48:45.869Z,69.67
2023-01-04T10:52:53.156Z,69.86
2023-01-04T10:57:07.139Z,68.83
2023-01-04T11:01:19.564Z,70.08
2023-01-04T11:05:30.668Z,70.29
2023-01-04T11:09:40.035Z,69.67
2023-01-04T11:13:43.470Z,70.43
2023-01-04T11:17:53.083Z,70.01
2023-01-04T11:22:07.372Z,69.84
2023-01-04T11:26:17.214Z,69.83
2023-01-04T11:30:24.061Z,70.17
2023-01-04T11:34:45.955Z,71.08
2023-01-04T11:38:58.473Z,70.46
2023-01-04T11:43:18.995Z,70.85
2023-01-04T11:47:26.782Z,70.18
2023-01-04T11:51:39.951Z,70.26
2023-01-04T11:55:44.631Z,69.77
2023-01-04T12:00:10.743Z,70.81
2023-01-04T12:04:36.880Z,69.94
2023-01-04T12:12:50.185Z,69.06
2023-01-04T12:17:01.320Z,68.98
2023-01-04T12:21:07.653Z,68.26
2023-01-04T12:25:30.527Z,69.00
2023-01-04T12:29:55.189Z,69.56
2023-01-04T12:33:59.989Z,68.16
2023-01-04T12:38:03.690Z,68.27
2023-01-04T12:42:23.292Z,68.90
2023-01-04T12:47:00.197Z,69.71
2023-01-04T12:51:33.549Z,69.49
2023-01-04T12:56:01.181Z,69.85
2023-01-04T13:00:07.642Z,68.28
2023-01-04T13:04:39.331Z,69.26
2023-01-04T13:08:45.888Z,68.23
2023-01-04T13:13:22.407Z,68.45
2023-01-04T13:17:28.224Z,67.90
2023-01-04T13:21:39.684Z,68.31
2023-01-04T13:25:42.924Z,68.19
2023-01-04T13:29:46.985Z,68.32
2023-01-04T13:33:50.314Z,68.44
2023-01-04T13:37:54.842Z,68.46
2023-01-04T13:42:00.196Z,67.97
2023-01-04T13:46:16.393Z,68.60
2023-01-04T13:50:29.595Z,68.61
2023-01-04T13:54:35.606Z,68.36
2023-01-04T13:58:39.150Z,68.59
2023-01-04T14:02:42.506Z,68.90
2023-01-04T14:06:48.728Z,69.24
2023-01-04T14:10:53.416Z,69.51
2023-01-04T14:15:01.408Z,69.76
2023-01-04T14:19:43.765Z,70.34
2023-01-04T14:23:46.741Z,70.26
2023-01-04T14:27:52.680Z,70.63
2023-01-04T14:31:56.473Z,70.47
2023-01-04T14:36:04.617Z,70.80
2023-01-04T14:40:16.561Z,70.93
2023-01-04T14:44:22.980Z,70.12
2023-01-04T14:48:26.431Z,70.66
2023-01-04T14:52:30.345Z,70.93
2023-01-04T14:56:33.631Z,71.76
2023-01-04T15:00:38.234Z,72.34
2023-01-04T15:04:41.637Z,72.69
2023-01-04T15:08:45.218Z,72.45
2023-01-04T15:12:49.516Z,73.28
2023-01-04T15:16:54.251Z,72.89
2023-01-04T15:20:57.626Z,72.28
2023-01-04T15:25:01.018Z,72.65
2023-01-04T15:29:07.131Z,72.98
2023-01-04T15:33:12.409Z,72.89
2023-01-04T15:37:20.084Z,73.10
2023-01-04T15:41:44.174Z,73.28
2023-01-04T15:45:48.589Z,73.35
2023-01-04T15:49:53.250Z,73.76
2023-01-04T15:53:57.146Z,73.43
2023-01-04T15:58:00.223Z,73.61
2023-01-04T16:02:03.731Z,73.17
2023-01-04T16:06:10.727Z,73.72
2023-01-04T16:10:14.078Z,73.55
2023-01-04T16:14:17.056Z,73.32
2023-01-04T16:18:20.582Z,73.51
2023-01-04T16:35:35.706Z,73.21
2023-01-04T16:40:08.647Z,73.38
2023-01-04T16:44:28.722Z,73.66
2023-01-04T16:48:32.366Z,73.79
2023-01-04T16:52:39.688Z,74.32
2023-01-04T16:57:02.983Z,74.64
2023-01-04T17:01:23.981Z,75.06
2023-01-04T17:05:38.087Z,75.11
2023-01-04T17:10:01.092Z,75.15
2023-01-04T17:14:09.977Z,74.77
2023-01-04T17:18:24.324Z,73.56
2023-01-04T17:26:56.543Z,73.13
2023-01-04T17:35:30.603Z,73.02
2023-01-04T17:39:33.813Z,73.48
2023-01-04T17:43:37.300Z,73.28
2023-01-04T17:47:43.006Z,73.71
2023-01-04T17:51:47.522Z,73.61
2023-01-04T17:55:50.579Z,73.64
2023-01-04T17:59:54.703Z,73.66
2023-01-04T18:04:00.484Z,73.90
2023-01-04T18:08:03.880Z,73.84
2023-01-04T18:12:07.405Z,73.91
2023-01-04T18:16:29.536Z,73.64
2023-01-04T18:20:34.882Z,73.84
2023-01-04T18:24:39.207Z,73.83
2023-01-04T18:28:45.635Z,74.03
2023-01-04T18:32:48.900Z,73.77
2023-01-04T18:36:55.299Z,73.78
2023-01-04T18:40:58.583Z,73.17
2023-01-04T18:45:02.215Z,73.36
2023-01-04T18:49:10.210Z,73.01
2023-01-04T18:53:20.859Z,73.10
2023-01-04T18:57:24.735Z,73.46
2023-01-04T19:01:33.652Z,74.13
2023-01-04T19:05:41.454Z,74.82
2023-01-04T19:09:47.522Z,75.82
2023-01-04T19:13:55.296Z,75.72
2023-01-04T19:18:09.158Z,76.08
2023-01-04T19:22:17.305Z,76.62
2023-01-04T19:26:29.209Z,76.34
2023-01-04T19:30:49.797Z,76.18
2023-01-04T19:35:00.453Z,76.04
2023-01-04T19:44:39.960Z,73.69
2023-01-04T19:53:19.188Z,72.58
2023-01-04T19:57:26.884Z,72.79
2023-01-04T20:01:32.027Z,70.38
2023-01-04T20:05:36.655Z,69.15
2023-01-04T20:09:40.252Z,67.97
2023-01-04T20:13:45.774Z,67.64
2023-01-04T20:17:50.291Z,66.32
2023-01-04T20:21:56.369Z,65.81
2023-01-04T20:25:59.826Z,64.66
2023-01-04T20:30:29.937Z,64.69
2023-01-04T20:35:04.552Z,63.83
2023-01-04T20:39:11.111Z,64.20
2023-01-04T20:43:35.884Z,62.05
2023-01-04T20:47:43.063Z,62.19
2023-01-04T20:51:55.435Z,62.29
2023-01-04T20:55:58.385Z,61.32
2023-01-04T21:00:03.071Z,60.78
2023-01-04T21:04:06.702Z,60.71
2023-01-04T21:08:14.407Z,61.63
2023-01-04T21:12:18.139Z,60.35
2023-01-04T21:16:22.895Z,60.56
2023-01-04T21:20:29.542Z,60.74
2023-01-04T21:24:40.215Z,61.38
2023-01-04T21:28:44.848Z,60.19
2023-01-04T21:32:49.722Z,61.07
2023-01-04T21:36:54.320Z,62.27
2023-01-04T21:41:02.930Z,62.18
2023-01-04T21:45:08.864Z,62.06
2023-01-04T21:49:17.662Z,62.24
2023-01-04T21:53:25.417Z,61.71
2023-01-04T21:57:29.945Z,64.72
2023-01-04T22:01:35.418Z,62.30
2023-01-04T22:05:39.787Z,64.01
2023-01-04T22:09:45.633Z,63.93
2023-01-04T22:13:58.176Z,64.28
2023-01-04T22:18:05.147Z,64.63
2023-01-04T22:22:08.849Z,65.17
2023-01-04T22:26:13.246Z,65.57
2023-01-04T22:30:19.938Z,65.50
2023-01-04T22:34:25.002Z,66.51
2023-01-04T22:38:28.520Z,67.16
2023-01-04T22:42:31.605Z,65.50
2023-01-04T22:46:37.125Z,66.53
2023-01-04T22:50:40.379Z,66.33
2023-01-04T22:54:44.074Z,66.04
2023-01-04T22:58:53.879Z,66.44
2023-01-04T23:02:59.799Z,65.05
2023-01-04T23:07:03.058Z,65.40
2023-01-04T23:11:07.561Z,65.62
2023-01-04T23:15:11.726Z,65.64
2023-01-04T23:19:16.256Z,65.86
2023-01-04T23:23:19.416Z,66.05
2023-01-04T23:27:22.572Z,66.06
2023-01-04T23:31:29.835Z,65.59
2023-01-04T23:35:34.648Z,65.77
2023-01-04T23:39:37.846Z,66.12
2023-01-04T23:43:41.162Z,66.35
2023-01-04T23:47:44.673Z,65.46
2023-01-04T23:51:49.041Z,65.93
2023-01-04T23:56:04.477Z,65.35
